Time;durP1;ratioP1;P1;durP2;ratioP2;P2;SDS_P1;SDS_P2;PMS_P1;PMS_P2;Temp;Humidity;BMP_temperature;BMP_pressure;BME280_temperature;BME280_humidity;BME280_pressure;Samples;Min_cycle;Max_cycle;Signal;HPM_P1;HPM_P2
2023/06/24 00:01:24;;;;;;;17.83;15.77;;;16.20;88.50;;;;;;4975517;28;20185;-87
2023/06/24 00:03:53;;;;;;;16.98;14.98;;;16.10;88.50;;;;;;4975264;28;20758;-87
2023/06/24 00:06:19;;;;;;;16.25;14.52;;;16.20;88.70;;;;;;4975817;28;20217;-87
2023/06/24 00:08:49;;;;;;;19.40;15.55;;;16.00;88.30;;;;;;4976322;28;20204;-87
2023/06/24 00:11:15;;;;;;;17.10;14.65;;;15.90;88.40;;;;;;4976407;28;20175;-86
2023/06/24 00:13:41;;;;;;;17.23;15.23;;;15.90;88.80;;;;;;4976206;28;20198;-87
2023/06/24 00:16:07;;;;;;;16.63;15.02;;;15.90;88.70;;;;;;4976101;28;20190;-87
2023/06/24 00:18:34;;;;;;;22.42;15.52;;;15.90;88.60;;;;;;4975588;28;20646;-87
2023/06/24 00:21:01;;;;;;;20.67;14.95;;;15.80;88.60;;;;;;4976309;28;20277;-86
2023/06/24 00:23:27;;;;;;;17.20;15.48;;;15.80;88.80;;;;;;4974865;28;20575;-87
2023/06/24 00:25:54;;;;;;;17.02;14.77;;;15.80;88.80;;;;;;4976152;28;20175;-87
2023/06/24 00:28:21;;;;;;;20.48;14.43;;;15.70;88.80;;;;;;4974767;28;20199;-86
2023/06/24 00:30:47;;;;;;;18.42;15.63;;;15.80;88.90;;;;;;4974801;28;20654;-87
2023/06/24 00:33:13;;;;;;;21.30;15.93;;;15.80;89.10;;;;;;4974821;28;20198;-87
2023/06/24 00:35:42;;;;;;;17.35;15.38;;;15.80;89.60;;;;;;4974795;28;20668;-87
2023/06/24 00:38:08;;;;;;;19.60;15.18;;;15.70;89.90;;;;;;4976004;28;20182;-87
2023/06/24 00:40:35;;;;;;;20.75;15.15;;;15.80;89.90;;;;;;4975846;28;20539;-87
2023/06/24 00:43:02;;;;;;;20.25;15.60;;;15.70;89.80;;;;;;4974935;28;20229;-87
2023/06/24 00:45:29;;;;;;;17.17;15.15;;;15.70;89.60;;;;;;4975714;28;20174;-87
2023/06/24 00:47:56;;;;;;;21.15;16.75;;;15.70;89.70;;;;;;4974387;28;20258;-87
2023/06/24 00:50:22;;;;;;;20.50;17.20;;;15.60;90.10;;;;;;4975566;28;20178;-87
2023/06/24 00:52:49;;;;;;;21.75;18.85;;;15.60;90.60;;;;;;4975383;28;20217;-87
2023/06/24 00:55:15;;;;;;;21.58;17.83;;;15.60;91.00;;;;;;4974717;28;20635;-87
2023/06/24 00:57:45;;;;;;;23.85;17.83;;;15.50;91.20;;;;;;4974281;28;20183;-87
2023/06/24 01:00:17;;;;;;;23.20;17.48;;;15.50;91.40;;;;;;4974210;28;20229;-86
2023/06/24 01:02:43;;;;;;;19.17;16.45;;;15.60;91.40;;;;;;4974218;28;20209;-87
2023/06/24 01:05:12;;;;;;;20.50;16.23;;;15.60;91.20;;;;;;4975269;28;20175;-87
2023/06/24 01:07:38;;;;;;;16.05;14.43;;;15.60;91.20;;;;;;4973957;28;20202;-87
2023/06/24 01:10:06;;;;;;;19.77;14.95;;;15.60;91.10;;;;;;4974423;28;20179;-87
2023/06/24 01:12:33;;;;;;;15.30;13.75;;;15.50;90.80;;;;;;4974123;28;20230;-87
2023/06/24 01:14:59;;;;;;;18.05;15.43;;;15.50;90.70;;;;;;4975257;28;20666;-87
2023/06/24 01:18:10;;;;;;;24.88;16.25;;;15.30;90.30;;;;;;4973965;28;20179;-87
2023/06/24 01:21:03;;;;;;;23.02;16.90;;;15.30;90.20;;;;;;4881472;29;20204;-86
2023/06/24 01:24:09;;;;;;;18.73;16.83;;;15.30;90.40;;;;;;4971944;28;20209;-87
2023/06/24 01:27:19;;;;;;;23.60;17.73;;;15.20;90.80;;;;;;4975306;28;20754;-87
2023/06/24 01:30:15;;;;;;;19.17;17.10;;;15.20;91.00;;;;;;4965778;28;20746;-87
2023/06/24 01:32:52;;;;;;;17.90;15.85;;;15.30;91.00;;;;;;4942707;28;20296;-86
2023/06/24 01:35:23;;;;;;;16.95;15.32;;;15.30;90.90;;;;;;4974505;28;20163;-86
2023/06/24 01:37:51;;;;;;;18.13;16.20;;;15.30;90.80;;;;;;4973635;28;20193;-87
2023/06/24 01:40:25;;;;;;;19.60;15.98;;;15.20;90.60;;;;;;4973605;28;20179;-87
2023/06/24 01:42:52;;;;;;;17.20;15.50;;;15.20;90.40;;;;;;4973603;28;20194;-86
2023/06/24 01:45:23;;;;;;;16.85;15.35;;;15.20;90.30;;;;;;4974337;28;20545;-87
2023/06/24 01:48:00;;;;;;;17.73;15.95;;;15.20;90.20;;;;;;4974631;28;20198;-87
2023/06/24 01:50:27;;;;;;;18.88;16.55;;;15.10;89.90;;;;;;4973483;28;20246;-87
2023/06/24 01:52:54;;;;;;;17.30;15.52;;;15.00;89.60;;;;;;4973300;28;20229;-86
2023/06/24 01:55:21;;;;;;;18.83;16.90;;;15.00;89.80;;;;;;4973329;28;20270;-87
2023/06/24 01:57:49;;;;;;;21.92;16.40;;;15.00;89.80;;;;;;4973426;28;20680;-87
2023/06/24 02:00:16;;;;;;;19.42;16.98;;;15.00;89.80;;;;;;4973609;28;20183;-86
2023/06/24 02:02:43;;;;;;;18.40;16.50;;;15.00;89.70;;;;;;4974459;28;20290;-86
2023/06/24 02:05:09;;;;;;;21.08;16.77;;;15.00;89.40;;;;;;4973255;28;20200;-86
2023/06/24 02:07:37;;;;;;;18.83;16.38;;;15.00;89.30;;;;;;4973465;28;20698;-87
2023/06/24 02:10:03;;;;;;;18.33;16.63;;;15.00;89.40;;;;;;4973171;28;20185;-86
2023/06/24 02:12:30;;;;;;;18.63;16.73;;;14.90;89.50;;;;;;4973078;28;20198;-86
2023/06/24 02:14:58;;;;;;;19.75;17.80;;;14.90;89.90;;;;;;4973206;28;20646;-86
2023/06/24 02:17:25;;;;;;;19.60;17.63;;;14.90;90.20;;;;;;4973660;28;20189;-86
2023/06/24 02:19:53;;;;;;;26.25;17.42;;;14.90;90.50;;;;;;4972998;28;20178;-86
2023/06/24 02:22:20;;;;;;;19.80;17.85;;;14.80;90.80;;;;;;4974143;28;20178;-86
2023/06/24 02:24:47;;;;;;;20.67;18.38;;;14.80;91.00;;;;;;4973040;28;20555;-86
2023/06/24 02:27:13;;;;;;;73.45;16.65;;;14.80;91.10;;;;;;4973016;28;20277;-87
2023/06/24 02:29:39;;;;;;;18.15;16.33;;;14.70;91.10;;;;;;4972830;28;20293;-86
2023/06/24 02:32:06;;;;;;;17.40;15.63;;;14.70;91.10;;;;;;4974077;28;20234;-86
2023/06/24 02:34:32;;;;;;;19.65;14.75;;;14.70;91.20;;;;;;4973075;28;20189;-86
2023/06/24 02:36:57;;;;;;;16.80;15.20;;;14.60;90.90;;;;;;4972933;28;20174;-86
2023/06/24 02:39:23;;;;;;;18.50;15.73;;;14.60;90.60;;;;;;4972936;28;20178;-86
2023/06/24 02:41:49;;;;;;;17.60;15.98;;;14.70;90.80;;;;;;4977395;28;20174;-86
2023/06/24 02:44:15;;;;;;;19.75;17.75;;;14.70;91.00;;;;;;4977832;28;20190;-86
2023/06/24 02:46:42;;;;;;;18.17;16.38;;;14.70;91.10;;;;;;4977173;28;20274;-87
2023/06/24 02:49:10;;;;;;;22.00;19.05;;;14.70;91.30;;;;;;4976593;28;20237;-87
2023/06/24 02:51:36;;;;;;;18.95;16.92;;;14.70;91.40;;;;;;4978188;28;20194;-86
2023/06/24 02:54:02;;;;;;;18.63;15.32;;;14.60;91.60;;;;;;4977712;28;20718;-86
2023/06/24 02:56:28;;;;;;;17.10;15.40;;;14.70;91.60;;;;;;4976442;28;20179;-86
2023/06/24 02:58:54;;;;;;;16.65;15.02;;;14.60;91.50;;;;;;4977532;28;20179;-86
2023/06/24 03:01:24;;;;;;;16.08;14.65;;;14.50;91.30;;;;;;4977234;28;20569;-86
2023/06/24 03:03:52;;;;;;;16.27;14.77;;;14.50;91.20;;;;;;4976316;28;20761;-86
2023/06/24 03:06:18;;;;;;;20.00;14.93;;;14.50;90.80;;;;;;4976320;28;20179;-87
2023/06/24 03:08:45;;;;;;;17.45;14.38;;;14.50;90.60;;;;;;4976146;28;20208;-86
2023/06/24 03:11:13;;;;;;;20.52;16.33;;;14.40;90.30;;;;;;4976231;28;20651;-86
2023/06/24 03:13:39;;;;;;;23.48;16.35;;;14.40;90.00;;;;;;4976593;28;20257;-86
2023/06/24 03:16:05;;;;;;;18.50;16.63;;;14.40;89.80;;;;;;4976170;28;20179;-86
2023/06/24 03:18:30;;;;;;;16.80;15.20;;;14.30;89.60;;;;;;4976103;28;20175;-86
2023/06/24 03:20:56;;;;;;;16.05;14.43;;;14.30;89.50;;;;;;4976104;28;20249;-86
2023/06/24 03:23:21;;;;;;;17.38;14.40;;;14.30;89.40;;;;;;4977462;28;20203;-86
2023/06/24 03:25:47;;;;;;;16.58;14.82;;;14.30;89.20;;;;;;4976103;28;20591;-86
2023/06/24 03:28:12;;;;;;;24.20;14.27;;;14.30;89.00;;;;;;4976713;28;20638;-86
2023/06/24 03:30:38;;;;;;;16.13;13.00;;;14.30;88.90;;;;;;4975848;28;20674;-86
2023/06/24 03:33:04;;;;;;;58.38;12.95;;;14.30;88.70;;;;;;4975673;28;20544;-86
2023/06/24 03:35:32;;;;;;;43.85;10.60;;;14.30;88.80;;;;;;4975743;28;20179;-86
2023/06/24 03:37:58;;;;;;;34.35;10.13;;;14.30;89.20;;;;;;4976917;28;20195;-86
2023/06/24 03:40:23;;;;;;;20.30;9.35;;;14.30;89.60;;;;;;4975802;28;20214;-86
2023/06/24 03:42:49;;;;;;;19.45;10.40;;;14.30;90.00;;;;;;4975509;28;20348;-86
2023/06/24 03:45:14;;;;;;;11.25;10.30;;;14.40;90.20;;;;;;4975669;28;20187;-87
2023/06/24 03:47:40;;;;;;;21.13;12.50;;;14.70;90.20;;;;;;4977027;28;20203;-87
2023/06/24 03:50:06;;;;;;;15.15;11.35;;;14.80;89.90;;;;;;4975531;28;20170;-86
2023/06/24 03:52:31;;;;;;;20.95;11.40;;;15.00;89.50;;;;;;4976380;28;20282;-86
2023/06/24 03:54:57;;;;;;;13.73;11.63;;;15.10;89.20;;;;;;4975491;28;20195;-86
2023/06/24 03:57:23;;;;;;;16.27;11.52;;;15.10;89.00;;;;;;4976875;28;20167;-86
2023/06/24 03:59:48;;;;;;;19.20;12.43;;;15.10;89.10;;;;;;4975396;28;20620;-87
2023/06/24 04:02:14;;;;;;;13.13;11.93;;;15.00;89.30;;;;;;4976500;28;20276;-86
2023/06/24 04:04:39;;;;;;;13.35;12.10;;;15.00;89.60;;;;;;4975275;28;20178;-86
2023/06/24 04:07:05;;;;;;;13.30;12.20;;;15.20;89.90;;;;;;4976391;28;20638;-87
2023/06/24 04:09:33;;;;;;;13.45;12.05;;;15.30;89.50;;;;;;4976391;28;20224;-86
2023/06/24 04:11:58;;;;;;;15.35;13.85;;;15.60;89.40;;;;;;4976314;28;20167;-86
2023/06/24 04:14:24;;;;;;;15.75;14.25;;;15.90;88.80;;;;;;4975351;28;20613;-86
2023/06/24 04:16:50;;;;;;;18.00;16.17;;;16.10;88.30;;;;;;4975143;28;20557;-87
2023/06/24 04:19:16;;;;;;;18.70;16.73;;;16.20;87.70;;;;;;4975785;28;20774;-87
2023/06/24 04:21:42;;;;;;;18.33;16.63;;;16.20;87.60;;;;;;4975223;28;20251;-86
2023/06/24 04:24:07;;;;;;;20.70;16.40;;;16.20;87.90;;;;;;4975168;28;20238;-86
2023/06/24 04:26:33;;;;;;;21.30;15.55;;;16.20;88.00;;;;;;4976384;28;20317;-87
2023/06/24 04:28:58;;;;;;;20.67;16.10;;;16.00;88.00;;;;;;4974845;28;20202;-86
2023/06/24 04:31:24;;;;;;;18.35;15.55;;;15.90;88.50;;;;;;4974763;28;20669;-87
2023/06/24 04:33:49;;;;;;;18.52;16.00;;;15.80;89.00;;;;;;4974996;28;20201;-87
2023/06/24 04:36:16;;;;;;;22.88;17.60;;;16.00;89.00;;;;;;4975767;28;20269;-87
2023/06/24 04:38:41;;;;;;;20.75;17.02;;;16.00;88.90;;;;;;4974650;28;20179;-87
2023/06/24 04:41:07;;;;;;;21.63;17.35;;;16.00;89.10;;;;;;4974608;28;20680;-87
2023/06/24 04:43:32;;;;;;;22.23;16.98;;;15.90;89.30;;;;;;4974521;28;20202;-87
2023/06/24 04:45:58;;;;;;;25.00;18.50;;;15.80;89.90;;;;;;4974482;28;20202;-86
2023/06/24 04:48:24;;;;;;;29.10;19.73;;;15.70;90.30;;;;;;4974515;28;20290;-86
2023/06/24 04:50:49;;;;;;;24.48;19.25;;;15.70;90.70;;;;;;4975822;28;20182;-87
2023/06/24 04:53:15;;;;;;;24.90;18.77;;;15.80;91.10;;;;;;4975741;28;20206;-87
2023/06/24 04:55:41;;;;;;;26.58;20.23;;;15.80;91.30;;;;;;4975515;28;20182;-86
2023/06/24 04:58:06;;;;;;;31.85;20.83;;;15.90;91.50;;;;;;4974351;28;20729;-87
2023/06/24 05:00:32;;;;;;;26.58;19.70;;;16.00;91.80;;;;;;4974292;28;20670;-87
2023/06/24 05:02:57;;;;;;;30.23;21.00;;;16.00;91.90;;;;;;4975123;28;20575;-87
2023/06/24 05:05:23;;;;;;;34.25;20.85;;;16.00;92.10;;;;;;4974232;28;20179;-87
2023/06/24 05:07:48;;;;;;;33.13;21.27;;;16.00;92.30;;;;;;4975231;28;20230;-87
2023/06/24 05:10:14;;;;;;;32.70;21.50;;;16.10;92.40;;;;;;4974130;28;20175;-87
2023/06/24 05:12:40;;;;;;;35.13;23.45;;;16.10;92.60;;;;;;4975230;28;20282;-86
2023/06/24 05:15:06;;;;;;;33.17;22.75;;;16.20;92.90;;;;;;4974039;28;20178;-86
2023/06/24 05:17:31;;;;;;;32.00;23.15;;;16.20;93.00;;;;;;4974021;28;20672;-87
2023/06/24 05:19:57;;;;;;;27.85;23.33;;;16.20;93.10;;;;;;4973872;28;20183;-86
2023/06/24 05:22:23;;;;;;;34.50;23.20;;;16.30;93.30;;;;;;4975112;28;20615;-86
2023/06/24 05:24:48;;;;;;;37.13;24.20;;;16.30;93.30;;;;;;4975057;28;20654;-86
2023/06/24 05:27:14;;;;;;;37.78;25.17;;;16.40;93.40;;;;;;4975071;28;20202;-86
2023/06/24 05:29:40;;;;;;;35.15;23.77;;;16.50;93.40;;;;;;4975497;28;20210;-86
2023/06/24 05:32:05;;;;;;;31.45;23.67;;;16.40;93.10;;;;;;4975105;28;20167;-86
2023/06/24 05:34:31;;;;;;;29.48;22.10;;;16.50;93.20;;;;;;4974877;28;20202;-86
2023/06/24 05:36:56;;;;;;;26.98;20.85;;;16.50;92.90;;;;;;4974826;28;20605;-87
2023/06/24 05:39:22;;;;;;;26.45;21.33;;;16.60;92.60;;;;;;4975096;28;20185;-86
2023/06/24 05:41:50;;;;;;;26.75;19.40;;;16.60;92.40;;;;;;4973641;28;20189;-86
2023/06/24 05:44:17;;;;;;;22.17;19.63;;;16.60;92.00;;;;;;4974664;28;20227;-87
2023/06/24 05:46:46;;;;;;;22.50;18.30;;;16.70;91.90;;;;;;4973568;28;20612;-87
2023/06/24 05:49:11;;;;;;;26.17;18.63;;;16.80;91.40;;;;;;4973401;28;20199;-87
2023/06/24 05:51:37;;;;;;;29.45;18.65;;;17.00;91.40;;;;;;4974241;28;20185;-87
2023/06/24 05:54:03;;;;;;;20.40;16.48;;;17.00;91.20;;;;;;4974582;28;20289;-87
2023/06/24 05:56:28;;;;;;;19.85;16.08;;;17.10;90.70;;;;;;4973420;28;20186;-87
2023/06/24 05:58:54;;;;;;;25.48;16.58;;;17.20;90.10;;;;;;4973481;28;20175;-87
2023/06/24 06:01:20;;;;;;;19.05;16.20;;;17.20;89.70;;;;;;4973328;28;20189;-87
2023/06/24 06:03:45;;;;;;;20.85;17.02;;;17.20;89.40;;;;;;4973351;28;20206;-87
2023/06/24 06:06:11;;;;;;;23.45;15.00;;;17.30;89.60;;;;;;4973323;28;20601;-87
2023/06/24 06:08:36;;;;;;;19.83;16.50;;;17.30;89.10;;;;;;4973328;28;20626;-87
2023/06/24 06:11:02;;;;;;;16.23;13.88;;;17.20;88.60;;;;;;4973215;28;20175;-87
2023/06/24 06:13:28;;;;;;;15.95;12.48;;;17.30;88.10;;;;;;4974323;28;20190;-86
2023/06/24 06:15:54;;;;;;;16.35;14.23;;;17.30;87.10;;;;;;4972251;28;20179;-87
2023/06/24 06:18:20;;;;;;;18.02;13.95;;;17.50;87.50;;;;;;4973179;28;20183;-87
2023/06/24 06:20:45;;;;;;;16.40;14.70;;;17.60;86.70;;;;;;4973216;28;20186;-87
2023/06/24 06:23:11;;;;;;;16.88;12.23;;;17.40;86.40;;;;;;4973142;28;20195;-87
2023/06/24 06:25:37;;;;;;;12.65;11.27;;;17.40;85.10;;;;;;4973191;28;20179;-87
2023/06/24 06:28:03;;;;;;;15.10;10.98;;;17.50;84.90;;;;;;4974335;28;20199;-87
2023/06/24 06:30:29;;;;;;;14.30;9.68;;;17.60;84.80;;;;;;4973113;28;20202;-87
2023/06/24 06:32:54;;;;;;;11.10;9.82;;;17.50;83.70;;;;;;4973424;28;20202;-87
2023/06/24 06:35:20;;;;;;;11.18;9.27;;;17.60;83.50;;;;;;4973075;28;20171;-87
2023/06/24 06:37:51;;;;;;;11.05;9.45;;;17.90;84.20;;;;;;4974343;28;20232;-87
2023/06/24 06:40:18;;;;;;;11.23;10.05;;;17.70;82.30;;;;;;4973099;28;20631;-87
2023/06/24 06:42:43;;;;;;;12.40;9.38;;;17.90;83.00;;;;;;4973092;28;20199;-87
2023/06/24 06:45:09;;;;;;;14.13;10.45;;;18.20;82.70;;;;;;4974342;28;20179;-87
2023/06/24 06:47:35;;;;;;;12.63;10.45;;;18.20;83.20;;;;;;4973017;28;20179;-87
2023/06/24 06:50:00;;;;;;;13.20;9.20;;;18.30;82.50;;;;;;4974310;28;20178;-87
2023/06/24 06:52:27;;;;;;;13.40;10.30;;;18.50;82.80;;;;;;4972795;28;20198;-87
2023/06/24 06:54:53;;;;;;;12.32;10.90;;;18.30;81.00;;;;;;4973167;28;20166;-87
2023/06/24 06:57:18;;;;;;;12.75;11.65;;;18.20;81.20;;;;;;4974164;28;20257;-87
2023/06/24 06:59:44;;;;;;;14.38;12.80;;;18.20;81.20;;;;;;4974073;28;20187;-87
2023/06/24 07:02:10;;;;;;;13.50;11.48;;;18.20;82.10;;;;;;4972787;28;20214;-86
2023/06/24 07:04:35;;;;;;;15.73;13.38;;;18.20;82.00;;;;;;4972802;28;20179;-87
2023/06/24 07:07:01;;;;;;;15.05;13.63;;;18.30;81.70;;;;;;4973159;28;20179;-87
2023/06/24 07:09:26;;;;;;;14.50;12.32;;;18.20;81.90;;;;;;4972781;28;20210;-87
2023/06/24 07:11:52;;;;;;;15.63;14.00;;;18.20;82.20;;;;;;4972750;28;20174;-87
2023/06/24 07:14:17;;;;;;;14.88;12.95;;;18.40;82.10;;;;;;4972631;28;20222;-87
2023/06/24 07:16:43;;;;;;;14.32;12.90;;;18.30;81.80;;;;;;4972876;28;20623;-87
2023/06/24 07:19:08;;;;;;;14.85;11.75;;;18.50;82.40;;;;;;4974185;28;20175;-87
2023/06/24 07:21:34;;;;;;;14.63;13.13;;;18.60;81.90;;;;;;4972696;28;20185;-87
2023/06/24 07:23:59;;;;;;;16.77;13.68;;;18.40;81.40;;;;;;4974055;28;20225;-88
2023/06/24 07:26:28;;;;;;;15.30;12.95;;;18.60;81.10;;;;;;4973907;28;20701;-87
2023/06/24 07:28:58;;;;;;;16.17;11.88;;;18.60;80.80;;;;;;4976178;28;20289;-87
2023/06/24 07:31:23;;;;;;;14.02;11.50;;;18.60;80.80;;;;;;4975977;28;20179;-87
2023/06/24 07:33:49;;;;;;;15.90;13.02;;;18.70;81.10;;;;;;4975973;28;20210;-87
2023/06/24 07:36:14;;;;;;;14.55;11.70;;;18.80;80.40;;;;;;4976022;28;20630;-87
2023/06/24 07:38:40;;;;;;;13.63;12.15;;;19.10;80.10;;;;;;4976050;28;20178;-87
2023/06/24 07:41:05;;;;;;;18.25;13.90;;;19.10;79.00;;;;;;4975881;28;20229;-87
2023/06/24 07:43:31;;;;;;;14.00;12.57;;;18.80;78.40;;;;;;4975863;28;20194;-87
2023/06/24 07:45:56;;;;;;;14.02;12.25;;;18.90;79.40;;;;;;4975978;28;20190;-87
2023/06/24 07:48:22;;;;;;;14.45;12.63;;;18.90;76.70;;;;;;4975698;28;20203;-87
2023/06/24 07:50:47;;;;;;;14.93;12.98;;;19.20;78.40;;;;;;4975897;28;20178;-87
2023/06/24 07:53:13;;;;;;;14.65;13.20;;;19.30;77.40;;;;;;4975704;28;20756;-87
2023/06/24 07:55:38;;;;;;;13.88;12.63;;;19.20;76.70;;;;;;4976129;28;20295;-87
2023/06/24 07:58:04;;;;;;;14.65;13.32;;;19.40;77.00;;;;;;4975757;28;20185;-87
2023/06/24 08:00:30;;;;;;;16.45;14.10;;;19.70;76.60;;;;;;4976849;28;20206;-87
2023/06/24 08:02:57;;;;;;;17.15;15.48;;;19.50;75.20;;;;;;4975379;28;20241;-87
2023/06/24 08:05:23;;;;;;;17.55;15.85;;;19.10;73.90;;;;;;4976891;28;20175;-87
2023/06/24 08:07:51;;;;;;;15.32;13.88;;;19.20;74.60;;;;;;4976604;28;20194;-87
2023/06/24 08:10:16;;;;;;;15.40;13.95;;;19.50;76.10;;;;;;4975555;28;20183;-87
2023/06/24 08:12:42;;;;;;;16.88;15.48;;;19.80;75.40;;;;;;4975574;28;20633;-87
2023/06/24 08:15:08;;;;;;;17.50;15.93;;;19.70;71.50;;;;;;4975514;28;20669;-87
2023/06/24 08:17:33;;;;;;;17.15;15.63;;;19.80;71.60;;;;;;4975241;28;20325;-87
2023/06/24 08:19:59;;;;;;;19.30;15.73;;;20.00;71.80;;;;;;4975801;28;20175;-87
2023/06/24 08:22:24;;;;;;;17.05;15.55;;;20.10;72.10;;;;;;4976717;28;20205;-87
2023/06/24 08:24:50;;;;;;;17.58;16.20;;;20.20;72.10;;;;;;4975312;28;20206;-87
2023/06/24 08:27:15;;;;;;;17.35;15.70;;;20.10;67.90;;;;;;4976703;28;20175;-87
2023/06/24 08:29:41;;;;;;;18.20;16.33;;;20.20;69.70;;;;;;4975209;28;20281;-87
2023/06/24 08:32:07;;;;;;;16.83;15.50;;;20.20;68.70;;;;;;4976451;28;20171;-87
2023/06/24 08:34:33;;;;;;;17.60;16.10;;;20.20;68.70;;;;;;4976376;28;20175;-87
2023/06/24 08:36:58;;;;;;;17.17;15.88;;;20.20;67.40;;;;;;4975536;28;20175;-87
2023/06/24 08:39:24;;;;;;;16.83;15.45;;;20.50;67.90;;;;;;4975770;28;20197;-87
2023/06/24 08:41:49;;;;;;;16.83;15.27;;;20.90;68.10;;;;;;4976161;28;20182;-87
2023/06/24 08:44:15;;;;;;;17.38;15.73;;;21.00;66.40;;;;;;4974996;28;20199;-88
2023/06/24 08:46:41;;;;;;;16.88;15.48;;;21.10;66.90;;;;;;4975442;28;20186;-87
2023/06/24 08:49:16;;;;;;;17.35;15.82;;;21.40;66.20;;;;;;4977621;28;20209;-89
2023/06/24 08:51:46;;;;;;;15.88;14.30;;;21.60;67.60;;;;;;4975560;28;20174;-89
2023/06/24 08:54:14;;;;;;;17.08;15.65;;;21.70;65.70;;;;;;4975543;28;20697;-89
2023/06/24 08:56:41;;;;;;;17.80;16.27;;;21.60;64.10;;;;;;4976286;28;20178;-89
2023/06/24 08:59:06;;;;;;;17.42;16.23;;;21.50;64.80;;;;;;4975196;28;20186;-87
2023/06/24 09:01:32;;;;;;;17.33;15.93;;;21.10;66.00;;;;;;4976347;28;20178;-87
2023/06/24 09:03:57;;;;;;;16.83;15.63;;;21.00;65.50;;;;;;4974677;28;20213;-87
2023/06/24 09:06:23;;;;;;;18.17;16.52;;;21.10;66.90;;;;;;4974669;28;20650;-87
2023/06/24 09:08:53;;;;;;;17.85;16.40;;;21.10;66.40;;;;;;4974377;28;20249;-88
2023/06/24 09:11:26;;;;;;;18.20;16.30;;;21.50;67.40;;;;;;4974466;28;20175;-87
2023/06/24 09:13:59;;;;;;;16.65;15.27;;;21.90;65.80;;;;;;4974313;28;20202;-88
2023/06/24 09:16:26;;;;;;;18.38;16.60;;;22.40;66.50;;;;;;4974844;28;20175;-87
2023/06/24 09:18:52;;;;;;;19.08;17.13;;;21.90;64.80;;;;;;4975403;28;20171;-87
2023/06/24 09:21:30;;;;;;;18.73;17.15;;;22.00;65.50;;;;;;4974353;28;20206;-87
2023/06/24 09:23:59;;;;;;;19.15;17.35;;;21.90;64.40;;;;;;4975256;28;20214;-87
2023/06/24 09:26:25;;;;;;;18.67;17.17;;;21.80;65.60;;;;;;4974156;28;20273;-87
2023/06/24 09:28:52;;;;;;;18.33;16.92;;;21.90;65.00;;;;;;4973926;28;20614;-87
2023/06/24 09:31:18;;;;;;;18.55;16.65;;;22.00;65.30;;;;;;4975280;28;20163;-87
2023/06/24 09:33:44;;;;;;;19.05;17.35;;;22.20;66.30;;;;;;4974032;28;20201;-87
2023/06/24 09:36:14;;;;;;;19.17;17.48;;;22.40;67.20;;;;;;4974135;28;20190;-87
2023/06/24 09:38:42;;;;;;;18.60;17.00;;;22.50;65.00;;;;;;4974140;28;20576;-87
2023/06/24 09:41:08;;;;;;;19.75;18.00;;;22.90;64.20;;;;;;4973914;28;20563;-87
2023/06/24 09:43:39;;;;;;;20.17;18.38;;;22.40;63.80;;;;;;4975025;28;20194;-87
2023/06/24 09:46:06;;;;;;;19.20;17.60;;;22.40;64.60;;;;;;4973827;28;20199;-87
2023/06/24 09:48:32;;;;;;;19.50;17.70;;;22.90;64.40;;;;;;4974018;28;20293;-87
2023/06/24 09:51:03;;;;;;;18.27;16.73;;;23.20;63.50;;;;;;4973699;28;20266;-87
2023/06/24 09:53:34;;;;;;;20.70;18.75;;;23.30;64.70;;;;;;4973659;28;20261;-87
2023/06/24 09:56:01;;;;;;;19.73;18.15;;;22.90;64.90;;;;;;4974894;28;20549;-87
2023/06/24 09:58:31;;;;;;;20.48;18.90;;;22.80;64.30;;;;;;4973653;28;20257;-87
2023/06/24 10:01:00;;;;;;;22.48;20.55;;;23.10;65.00;;;;;;4974914;28;20257;-87
2023/06/24 10:03:26;;;;;;;20.73;19.13;;;22.70;62.70;;;;;;4974636;28;20708;-87
2023/06/24 10:05:52;;;;;;;21.45;19.00;;;22.80;64.40;;;;;;4974677;28;20175;-87
2023/06/24 10:08:18;;;;;;;20.77;18.88;;;22.90;66.10;;;;;;4973579;28;20653;-87
2023/06/24 10:10:44;;;;;;;20.67;19.08;;;23.00;65.50;;;;;;4973293;28;20269;-87
2023/06/24 10:13:09;;;;;;;21.42;19.55;;;23.10;66.00;;;;;;4973652;28;20237;-87
2023/06/24 10:15:35;;;;;;;22.63;20.23;;;23.30;65.90;;;;;;4973433;28;20175;-87
2023/06/24 10:18:03;;;;;;;21.60;19.83;;;23.50;64.70;;;;;;4974533;28;20174;-87
2023/06/24 10:20:28;;;;;;;21.63;20.02;;;23.20;64.30;;;;;;4973283;28;20658;-87
2023/06/24 10:22:54;;;;;;;20.30;18.55;;;23.50;64.30;;;;;;4974475;28;20194;-87
2023/06/24 10:25:21;;;;;;;23.90;21.65;;;23.90;66.00;;;;;;4973563;28;20182;-87
2023/06/24 10:27:53;;;;;;;22.20;20.30;;;24.50;61.30;;;;;;4973284;28;20233;-87
2023/06/24 10:30:19;;;;;;;22.88;20.58;;;24.20;62.10;;;;;;4973529;28;20166;-87
2023/06/24 10:32:45;;;;;;;21.17;19.52;;;24.20;63.00;;;;;;4973395;28;20248;-86
2023/06/24 10:35:29;;;;;;;22.25;20.25;;;23.60;65.20;;;;;;4974337;28;20174;-87
2023/06/24 10:38:00;;;;;;;22.27;20.52;;;23.50;64.20;;;;;;4973148;28;20170;-86
2023/06/24 10:40:39;;;;;;;22.55;20.55;;;23.60;63.40;;;;;;4973176;28;20191;-87
2023/06/24 10:43:25;;;;;;;22.80;20.55;;;23.70;65.50;;;;;;4974254;28;20550;-87
2023/06/24 10:45:55;;;;;;;21.90;19.83;;;23.80;64.10;;;;;;4973015;28;20186;-86
2023/06/24 10:48:21;;;;;;;21.25;19.55;;;24.10;64.90;;;;;;4973054;28;20572;-87
2023/06/24 10:50:49;;;;;;;20.70;19.05;;;24.70;65.10;;;;;;4973337;28;20229;-87
2023/06/24 10:53:14;;;;;;;20.10;18.40;;;25.10;62.00;;;;;;4972859;28;20560;-87
2023/06/24 10:55:40;;;;;;;20.38;18.88;;;25.50;64.60;;;;;;4972518;28;20186;-87
2023/06/24 10:58:10;;;;;;;19.92;18.25;;;25.60;60.10;;;;;;4972410;28;20193;-87
2023/06/24 11:00:35;;;;;;;20.15;18.50;;;25.50;60.80;;;;;;4973440;28;20179;-87
2023/06/24 11:03:14;;;;;;;19.90;18.40;;;25.80;59.50;;;;;;4976391;28;20613;-87
2023/06/24 11:05:42;;;;;;;19.52;17.83;;;25.90;59.20;;;;;;4975614;28;20256;-87
2023/06/24 11:08:08;;;;;;;18.77;16.98;;;25.80;60.40;;;;;;4976465;28;20198;-87
2023/06/24 11:10:45;;;;;;;19.92;18.50;;;26.40;59.30;;;;;;4977022;28;20175;-87
2023/06/24 11:13:11;;;;;;;20.45;18.77;;;25.50;57.50;;;;;;4975288;28;20190;-86
2023/06/24 11:15:39;;;;;;;20.92;19.08;;;25.00;59.90;;;;;;4975599;28;20193;-87
2023/06/24 11:18:07;;;;;;;19.85;18.45;;;25.20;60.30;;;;;;4976468;28;20188;-87
2023/06/24 11:20:32;;;;;;;21.02;19.23;;;25.50;58.00;;;;;;4975150;28;20189;-86
2023/06/24 11:22:58;;;;;;;19.98;18.30;;;24.80;59.30;;;;;;4974917;28;20194;-86
2023/06/24 11:25:23;;;;;;;20.10;18.58;;;25.10;59.70;;;;;;4975029;28;20250;-87
2023/06/24 11:27:55;;;;;;;19.45;18.05;;;25.30;59.00;;;;;;4975590;28;20187;-87
2023/06/24 11:30:20;;;;;;;20.27;18.67;;;25.70;57.80;;;;;;4975792;28;20234;-87
2023/06/24 11:32:47;;;;;;;19.80;18.30;;;25.00;57.50;;;;;;4974760;28;20195;-87
2023/06/24 11:35:15;;;;;;;20.63;18.95;;;24.70;60.60;;;;;;4974929;28;20178;-87
2023/06/24 11:37:46;;;;;;;20.40;18.88;;;25.30;59.40;;;;;;4975086;28;20182;-87
2023/06/24 11:40:13;;;;;;;19.92;18.42;;;25.20;58.30;;;;;;4975114;28;20729;-87
2023/06/24 11:42:40;;;;;;;21.30;19.48;;;24.90;59.00;;;;;;4974730;28;20207;-86
2023/06/24 11:45:12;;;;;;;20.63;19.02;;;24.50;61.00;;;;;;4974785;28;20265;-87
2023/06/24 11:47:39;;;;;;;20.25;18.67;;;25.10;61.20;;;;;;4975122;28;20206;-86
2023/06/24 11:50:07;;;;;;;19.48;18.10;;;25.70;61.90;;;;;;4975744;28;20269;-87
2023/06/24 11:52:35;;;;;;;19.75;18.30;;;26.20;58.00;;;;;;4938621;28;1058381;-87
2023/06/24 11:55:01;;;;;;;20.40;18.70;;;25.90;57.30;;;;;;4975642;28;20183;-87
2023/06/24 11:57:56;;;;;;;20.52;18.98;;;25.60;61.10;;;;;;4976845;28;20553;-87
2023/06/24 12:00:23;;;;;;;20.17;18.38;;;25.90;59.00;;;;;;4975770;28;20206;-87
2023/06/24 12:03:22;;;;;;;19.35;17.77;;;25.90;58.20;;;;;;4975479;28;20586;-87
2023/06/24 12:05:47;;;;;;;19.60;18.10;;;26.20;57.20;;;;;;4923989;28;20190;-87
2023/06/24 12:08:16;;;;;;;19.15;17.40;;;26.70;55.70;;;;;;4975577;28;20203;-87
2023/06/24 12:10:43;;;;;;;19.65;18.15;;;26.70;56.40;;;;;;4976950;28;20312;-87
2023/06/24 12:13:09;;;;;;;19.63;18.33;;;27.10;54.80;;;;;;4975449;28;20286;-87
2023/06/24 12:15:35;;;;;;;20.25;18.65;;;26.60;53.00;;;;;;4976544;28;20261;-87
2023/06/24 12:18:02;;;;;;;18.83;17.63;;;26.20;55.20;;;;;;4976193;28;20519;-88
2023/06/24 12:20:29;;;;;;;19.80;18.05;;;26.60;55.50;;;;;;4975534;28;20266;-87
2023/06/24 12:22:55;;;;;;;19.40;17.85;;;26.80;54.10;;;;;;4976603;28;20209;-87
2023/06/24 12:25:21;;;;;;;19.65;18.25;;;25.60;56.00;;;;;;4975169;28;20183;-87
2023/06/24 12:27:47;;;;;;;19.75;18.35;;;25.70;59.50;;;;;;4976760;28;20206;-87
2023/06/24 12:30:13;;;;;;;19.83;18.40;;;26.20;56.40;;;;;;4976623;28;20237;-86